Time;durP1;ratioP1;P1;durP2;ratioP2;P2;SDS_P1;SDS_P2;PMS_P1;PMS_P2;Temp;Humidity;BMP_temperature;BMP_pressure;BME280_temperature;BME280_humidity;BME280_pressure;Samples;Min_cycle;Max_cycle;Signal;HPM_P1;HPM_P2
2022/01/17 00:00:11;;;;;;;11.50;1.90;;;;;;;6.37;89.64;103147.44;5076164;28;20025;-80
2022/01/17 00:02:37;;;;;;;11.35;2.20;;;;;;;6.25;88.41;103153.44;5075340;28;20483;-72
2022/01/17 00:05:04;;;;;;;10.82;2.08;;;;;;;6.18;87.36;103152.50;5075700;28;20028;-71
2022/01/17 00:07:30;;;;;;;13.70;2.22;;;;;;;6.06;87.17;103148.00;5076060;28;20028;-76
2022/01/17 00:09:56;;;;;;;15.35;2.33;;;;;;;5.95;86.99;103146.97;5075989;28;20065;-74
2022/01/17 00:12:22;;;;;;;11.43;2.50;;;;;;;5.84;87.68;103146.81;5075189;28;20104;-83
2022/01/17 00:14:48;;;;;;;15.15;3.05;;;;;;;5.75;88.14;103154.59;5075650;28;20104;-83
2022/01/17 00:19:44;;;;;;;14.00;1.92;;;;;;;5.58;89.19;103160.50;5075736;28;20040;-72
2022/01/17 00:22:11;;;;;;;16.50;2.47;;;;;;;5.54;89.00;103171.84;5075340;28;20536;-71
2022/01/17 00:24:37;;;;;;;13.60;1.98;;;;;;;5.44;89.33;103175.22;5075105;28;20039;-76
2022/01/17 00:27:03;;;;;;;12.50;2.20;;;;;;;5.33;89.68;103171.53;5075626;28;20025;-79
2022/01/17 00:29:28;;;;;;;11.77;2.10;;;;;;;5.19;90.71;103180.13;5075635;28;20036;-72
2022/01/17 00:31:54;;;;;;;12.30;1.75;;;;;;;5.11;90.88;103172.97;5075292;28;20016;-82
2022/01/17 00:34:19;;;;;;;8.60;1.75;;;;;;;5.05;91.18;103181.63;5074758;28;20226;-81
2022/01/17 00:36:45;;;;;;;11.65;1.88;;;;;;;4.97;92.00;103173.63;5075201;28;20029;-71
2022/01/17 00:39:10;;;;;;;12.45;2.42;;;;;;;4.93;92.51;103171.81;5075375;28;20051;-71
2022/01/17 00:41:36;;;;;;;19.33;2.50;;;;;;;4.94;92.34;103168.34;5075421;28;20049;-76
2022/01/17 00:44:01;;;;;;;16.65;2.30;;;;;;;4.92;93.26;103159.53;5074767;28;20044;-71
2022/01/17 00:46:27;;;;;;;13.38;1.98;;;;;;;4.89;93.27;103141.13;5074479;28;20032;-78
2022/01/17 00:48:53;;;;;;;12.60;2.88;;;;;;;4.84;92.76;103158.53;5074817;28;20027;-71
2022/01/17 00:51:19;;;;;;;11.80;2.20;;;;;;;4.79;94.21;103157.59;5074507;28;20017;-78
2022/01/17 00:53:44;;;;;;;11.13;1.92;;;;;;;4.72;93.82;103164.47;5073830;28;20040;-80
2022/01/17 00:56:09;;;;;;;11.18;1.90;;;;;;;4.69;94.36;103172.28;5073612;28;20111;-82
2022/01/17 00:58:35;;;;;;;12.50;1.90;;;;;;;4.64;93.72;103169.56;5073851;28;20357;-83
2022/01/17 01:01:00;;;;;;;15.40;2.22;;;;;;;4.62;94.44;103160.81;5073815;28;20047;-70
2022/01/17 01:03:26;;;;;;;8.40;1.55;;;;;;;4.58;93.97;103162.50;5073753;28;20032;-79
2022/01/17 01:05:51;;;;;;;13.35;2.15;;;;;;;4.52;94.18;103164.13;5073294;28;20036;-79
2022/01/17 01:08:16;;;;;;;11.32;1.65;;;;;;;4.43;94.47;103149.97;5073380;28;20013;-71
2022/01/17 01:10:42;;;;;;;15.45;2.22;;;;;;;4.38;95.27;103149.00;5073676;28;20048;-81
2022/01/17 01:13:09;;;;;;;13.20;2.08;;;;;;;4.32;94.74;103148.00;5073544;28;20073;-82
2022/01/17 01:15:47;;;;;;;12.02;1.90;;;;;;;4.31;95.77;103149.75;5073531;28;20036;-82
2022/01/17 01:18:18;;;;;;;15.40;1.92;;;;;;;4.35;96.36;103151.59;5073043;28;20384;-71
2022/01/17 01:28:42;;;;;;;10.52;1.73;;;;;;;4.37;95.69;103169.97;5072707;28;20040;-74
2022/01/17 01:31:14;;;;;;;9.10;1.77;;;;;;;4.35;96.26;103171.66;5073420;28;20388;-76
2022/01/17 01:33:43;;;;;;;14.25;2.03;;;;;;;4.37;96.84;103175.22;5073268;28;20464;-82
2022/01/17 01:36:14;;;;;;;13.80;2.50;;;;;;;4.35;96.33;103169.03;5073290;28;20089;-73
2022/01/17 01:38:41;;;;;;;5.13;1.10;;;;;;;4.26;96.31;103183.75;5072638;28;20028;-83
2022/01/17 01:41:06;;;;;;;9.38;1.77;;;;;;;4.20;96.81;103186.25;5073049;28;20162;-82
2022/01/17 01:43:32;;;;;;;12.52;2.13;;;;;;;4.14;97.32;103186.13;5073035;28;20479;-73
2022/01/17 01:46:00;;;;;;;16.52;2.22;;;;;;;4.13;97.76;103188.72;5072973;28;20033;-83
2022/01/17 01:48:28;;;;;;;14.10;1.88;;;;;;;4.08;97.79;103179.03;5072731;28;20064;-81
2022/01/17 01:50:53;;;;;;;9.50;1.65;;;;;;;4.15;98.22;103194.91;5073415;28;20028;-81
2022/01/17 01:53:19;;;;;;;11.13;2.00;;;;;;;4.13;98.13;103192.25;5032369;28;1166190;-77
2022/01/17 01:55:45;;;;;;;10.85;2.40;;;;;;;4.13;99.13;103194.88;5073557;28;20041;-75
2022/01/17 01:58:11;;;;;;;14.40;2.08;;;;;;;4.19;99.23;103199.34;5073470;28;20520;-73
2022/01/17 02:00:36;;;;;;;10.75;1.85;;;;;;;4.18;98.72;103181.84;5073384;28;20103;-70
2022/01/17 02:03:04;;;;;;;8.35;1.70;;;;;;;4.13;99.04;103191.34;5073248;28;20027;-71
2022/01/17 02:05:29;;;;;;;14.52;1.95;;;;;;;4.11;99.42;103188.72;5073814;28;20048;-73
2022/01/17 02:07:55;;;;;;;15.55;1.90;;;;;;;4.15;99.62;103184.41;5073335;28;20482;-82
2022/01/17 02:10:20;;;;;;;15.43;2.22;;;;;;;4.17;100.00;103182.69;5072929;28;20035;-72
2022/01/17 02:12:45;;;;;;;17.08;2.38;;;;;;;4.23;100.00;103177.56;5073556;28;20035;-83
2022/01/17 02:15:16;;;;;;;12.35;2.22;;;;;;;4.22;100.00;103176.69;5073312;28;20163;-75
2022/01/17 02:17:53;;;;;;;13.70;2.95;;;;;;;4.20;99.98;103172.28;5073077;28;20480;-71
2022/01/17 02:20:23;;;;;;;19.88;2.70;;;;;;;4.16;100.00;103165.22;5073213;28;20052;-83
2022/01/17 02:22:52;;;;;;;11.20;2.90;;;;;;;4.23;100.00;103173.22;5073260;28;20021;-82
2022/01/17 02:25:18;;;;;;;9.85;2.05;;;;;;;4.20;100.00;103169.66;5073198;28;20058;-80
2022/01/17 02:27:43;;;;;;;16.00;1.70;;;;;;;4.10;100.00;103176.44;5072816;28;20026;-76
2022/01/17 02:30:12;;;;;;;14.98;2.22;;;;;;;4.07;100.00;103182.50;5073196;28;20025;-82
2022/01/17 02:32:37;;;;;;;12.75;2.35;;;;;;;4.05;100.00;103175.47;5072779;28;20054;-74
2022/01/17 02:35:17;;;;;;;14.23;2.20;;;;;;;4.05;100.00;103176.38;5072577;28;20025;-70
2022/01/17 02:37:44;;;;;;;11.63;2.33;;;;;;;4.08;100.00;103176.44;5073020;28;20048;-76
2022/01/17 02:40:10;;;;;;;13.00;2.40;;;;;;;4.12;100.00;103172.13;5072894;28;20028;-72
2022/01/17 02:42:37;;;;;;;12.73;2.22;;;;;;;4.08;100.00;103179.03;5072421;28;20036;-82
2022/01/17 02:45:11;;;;;;;11.48;2.78;;;;;;;4.14;100.00;103180.03;5072688;28;20054;-70
2022/01/17 02:47:37;;;;;;;10.88;3.08;;;;;;;4.09;100.00;103180.81;5073160;28;20020;-70
2022/01/17 02:50:04;;;;;;;14.32;2.47;;;;;;;4.00;100.00;103188.47;5072856;28;20024;-75
2022/01/17 02:52:29;;;;;;;10.07;2.70;;;;;;;3.96;100.00;103181.41;5072509;28;20056;-75
2022/01/17 02:54:55;;;;;;;10.77;2.90;;;;;;;4.06;100.00;103187.75;5071939;28;20117;-82
2022/01/17 02:57:20;;;;;;;15.13;2.90;;;;;;;4.08;100.00;103188.66;5073020;28;20471;-83
2022/01/17 02:59:45;;;;;;;13.80;3.53;;;;;;;4.11;100.00;103188.72;5072413;28;20025;-80
2022/01/17 03:02:10;;;;;;;21.02;2.97;;;;;;;4.10;100.00;103186.94;5072686;28;20404;-78
2022/01/17 03:04:36;;;;;;;13.90;2.90;;;;;;;4.10;100.00;103192.19;5072289;28;20025;-71
2022/01/17 03:07:01;;;;;;;15.75;3.65;;;;;;;4.10;100.00;103197.44;5072546;28;20029;-73
2022/01/17 03:09:31;;;;;;;12.98;2.50;;;;;;;4.10;100.00;103197.44;5072575;28;20033;-71
2022/01/17 03:11:57;;;;;;;11.10;2.80;;;;;;;4.13;100.00;103199.22;5072650;28;20026;-83
2022/01/17 03:14:22;;;;;;;19.45;3.10;;;;;;;4.13;100.00;103196.59;5068526;28;20027;-73
2022/01/17 03:16:49;;;;;;;13.85;3.42;;;;;;;4.14;100.00;103186.13;5067628;28;20033;-75
2022/01/17 03:19:15;;;;;;;14.93;4.15;;;;;;;4.17;100.00;103187.94;5072442;28;20052;-80
2022/01/17 03:21:40;;;;;;;13.88;3.55;;;;;;;4.18;100.00;103179.22;5072481;28;20056;-72
2022/01/17 03:24:07;;;;;;;15.30;3.90;;;;;;;4.35;100.00;103183.06;5072139;28;20077;-71
2022/01/17 03:26:32;;;;;;;15.50;4.18;;;;;;;4.38;100.00;103179.63;5071408;28;20025;-78
2022/01/17 03:29:00;;;;;;;19.15;4.63;;;;;;;4.44;100.00;103171.84;5072562;28;20020;-76
2022/01/17 03:31:25;;;;;;;15.25;4.93;;;;;;;4.41;100.00;103175.31;5072603;28;20021;-71
2022/01/17 03:33:50;;;;;;;17.63;4.82;;;;;;;4.45;100.00;103171.00;5072233;28;20055;-82
2022/01/17 03:36:16;;;;;;;17.58;4.75;;;;;;;4.48;100.00;103152.69;5071152;28;20044;-83
2022/01/17 03:38:42;;;;;;;22.08;5.13;;;;;;;4.52;100.00;103157.13;5072153;28;20032;-76
2022/01/17 03:41:08;;;;;;;17.30;4.78;;;;;;;4.55;100.00;103164.16;5072173;28;20044;-71
2022/01/17 03:43:34;;;;;;;21.92;4.97;;;;;;;4.51;100.00;103173.72;5072492;28;20074;-73
2022/01/17 03:46:00;;;;;;;26.48;5.15;;;;;;;4.45;100.00;103176.25;5071955;28;20020;-71
2022/01/17 03:48:27;;;;;;;24.02;5.68;;;;;;;4.40;100.00;103177.91;5071533;28;20039;-70
2022/01/17 03:50:53;;;;;;;20.48;5.50;;;;;;;4.38;100.00;103172.59;5072271;28;20021;-82
2022/01/17 03:53:18;;;;;;;16.25;5.47;;;;;;;4.48;100.00;103165.81;5072067;28;20484;-71
2022/01/17 03:55:44;;;;;;;21.48;5.97;;;;;;;4.46;100.00;103159.63;5071799;28;20021;-71
2022/01/17 03:58:09;;;;;;;19.63;5.60;;;;;;;4.44;100.00;103158.75;5071289;28;20032;-81
2022/01/17 04:00:44;;;;;;;24.42;6.60;;;;;;;4.46;100.00;103154.38;5072256;28;20419;-73
2022/01/17 04:03:10;;;;;;;22.60;5.75;;;;;;;4.47;100.00;103163.16;5072045;28;20028;-83
2022/01/17 04:05:36;;;;;;;22.38;5.75;;;;;;;4.48;100.00;103159.69;5072066;28;20076;-73
2022/01/17 04:08:01;;;;;;;21.88;5.63;;;;;;;4.45;100.00;103159.63;5066646;28;20029;-74
2022/01/17 04:10:26;;;;;;;17.65;5.32;;;;;;;4.39;100.00;103173.50;5063885;28;20033;-82
2022/01/17 04:12:53;;;;;;;23.88;6.63;;;;;;;4.46;100.00;103172.75;5071709;28;20024;-71
2022/01/17 04:15:19;;;;;;;17.90;5.45;;;;;;;4.48;100.00;103172.81;5072161;28;20025;-76
2022/01/17 04:17:44;;;;;;;25.13;5.65;;;;;;;4.44;100.00;103177.09;5070715;28;20111;-81
2022/01/17 04:20:15;;;;;;;21.75;5.82;;;;;;;4.46;100.00;103179.75;5052697;28;20017;-81
2022/01/17 04:22:49;;;;;;;19.73;6.68;;;;;;;4.49;100.00;103177.16;5051957;28;20033;-72
2022/01/17 04:25:14;;;;;;;22.73;6.60;;;;;;;4.45;100.00;103193.72;5051863;28;20025;-82
2022/01/17 04:27:40;;;;;;;29.30;7.65;;;;;;;4.43;100.00;103197.19;5055167;28;20025;-73
2022/01/17 04:30:07;;;;;;;17.77;6.53;;;;;;;4.42;100.00;103207.66;5059147;28;20102;-80
2022/01/17 04:32:33;;;;;;;19.65;6.80;;;;;;;4.43;100.00;103205.06;5055626;28;20029;-77
2022/01/17 04:34:58;;;;;;;24.13;6.35;;;;;;;4.48;100.00;103204.28;5055527;28;20021;-70
2022/01/17 04:37:24;;;;;;;25.27;7.15;;;;;;;4.51;100.00;103199.09;5055540;28;20040;-82
2022/01/17 04:39:49;;;;;;;24.60;7.25;;;;;;;4.50;100.00;103206.09;5068672;28;20025;-83
2022/01/17 04:42:17;;;;;;;19.80;6.35;;;;;;;4.46;100.00;103206.84;5075325;28;20088;-84
2022/01/17 04:47:31;;;;;;;19.48;5.80;;;;;;;4.44;100.00;103195.47;5075323;28;20086;-83
2022/01/17 04:49:57;;;;;;;21.35;6.10;;;;;;;4.48;100.00;103185.94;5074198;28;20029;-71
2022/01/17 04:52:22;;;;;;;22.33;6.43;;;;;;;4.52;100.00;103195.63;5074983;28;20472;-71
2022/01/17 04:54:59;;;;;;;26.23;7.50;;;;;;;4.51;100.00;103207.81;5074739;28;20082;-72
2022/01/17 04:57:24;;;;;;;25.17;6.63;;;;;;;4.46;100.00;103195.50;5075005;28;20033;-79
2022/01/17 04:59:49;;;;;;;25.05;6.50;;;;;;;4.40;100.00;103199.78;5073875;28;20024;-80
2022/01/17 05:02:16;;;;;;;25.00;6.70;;;;;;;4.35;100.00;103201.41;5075023;28;20024;-74
2022/01/17 05:04:44;;;;;;;26.05;6.78;;;;;;;4.41;100.00;103213.75;5075082;28;20094;-81
2022/01/17 05:07:09;;;;;;;25.58;6.68;;;;;;;4.39;100.00;103211.13;5074837;28;20021;-82
2022/01/17 05:09:35;;;;;;;21.80;6.40;;;;;;;4.39;100.00;103215.50;5074705;28;20020;-73
2022/01/17 05:12:00;;;;;;;24.67;7.15;;;;;;;4.39;100.00;103211.13;5059490;28;20023;-74
2022/01/17 05:14:27;;;;;;;27.00;6.40;;;;;;;4.39;100.00;103216.34;5054527;28;20032;-71
2022/01/17 05:17:00;;;;;;;21.80;6.90;;;;;;;4.52;100.00;103212.22;5054591;28;20032;-81
2022/01/17 05:22:10;;;;;;;23.02;7.15;;;;;;;4.57;100.00;103221.06;5067385;28;20788;-83
2022/01/17 05:24:35;;;;;;;24.67;8.52;;;;;;;4.57;100.00;103214.94;5074284;28;20530;-81
2022/01/17 05:27:00;;;;;;;34.65;8.25;;;;;;;4.54;100.00;103214.88;5074485;28;20240;-71
2022/01/17 05:29:25;;;;;;;26.70;8.52;;;;;;;4.55;100.00;103219.28;5074321;28;20032;-82
2022/01/17 05:31:51;;;;;;;25.67;9.20;;;;;;;4.62;100.00;103223.78;5070418;28;20073;-82
2022/01/17 05:34:16;;;;;;;33.72;11.05;;;;;;;4.70;100.00;103226.56;5074370;28;20396;-83
2022/01/17 05:36:41;;;;;;;32.40;11.65;;;;;;;4.70;100.00;103222.19;5074218;28;20384;-74
2022/01/17 05:39:07;;;;;;;33.50;12.52;;;;;;;4.76;100.00;103217.03;5073209;28;20032;-83
2022/01/17 05:41:32;;;;;;;25.92;12.02;;;;;;;4.78;100.00;103224.06;5071887;28;20024;-72
2022/01/17 05:43:58;;;;;;;31.98;13.18;;;;;;;4.81;100.00;103205.72;5070024;28;20056;-72
2022/01/17 05:46:23;;;;;;;27.83;12.75;;;;;;;4.82;100.00;103200.53;5073504;28;20484;-71
2022/01/17 05:48:49;;;;;;;31.40;13.35;;;;;;;4.82;100.00;103203.16;5074084;28;20029;-71
2022/01/17 05:51:14;;;;;;;35.08;14.38;;;;;;;4.76;100.00;103196.03;5073839;28;20431;-71
2022/01/17 05:53:40;;;;;;;38.28;14.85;;;;;;;4.82;100.00;103192.66;5064902;28;20385;-80
2022/01/17 05:56:05;;;;;;;35.17;14.88;;;;;;;4.86;100.00;103199.72;5072478;28;20016;-70
2022/01/17 05:58:30;;;;;;;36.80;15.70;;;;;;;4.84;100.00;103216.31;5073877;28;20031;-77
2022/01/17 06:00:56;;;;;;;37.28;14.13;;;;;;;4.77;100.00;103228.44;5073533;28;20024;-83
2022/01/17 06:03:21;;;;;;;32.20;13.57;;;;;;;4.72;100.00;103225.72;5069564;28;20060;-71
2022/01/17 06:05:46;;;;;;;38.17;14.75;;;;;;;4.72;100.00;103223.09;5073498;28;20036;-82
2022/01/17 06:08:12;;;;;;;38.08;15.65;;;;;;;4.68;100.00;103216.03;5073248;28;20040;-78
2022/01/17 06:10:38;;;;;;;40.60;15.02;;;;;;;4.62;100.00;103234.28;5073501;28;20020;-83
2022/01/17 06:13:03;;;;;;;38.42;14.05;;;;;;;4.58;100.00;103235.09;5071746;28;20128;-76
2022/01/17 06:15:29;;;;;;;38.50;14.18;;;;;;;4.56;100.00;103252.53;5073146;28;20112;-73
2022/01/17 06:17:54;;;;;;;45.38;15.45;;;;;;;4.58;100.00;103245.59;5073134;28;20051;-81
2022/01/17 06:20:20;;;;;;;35.25;14.82;;;;;;;4.53;100.00;103242.88;5073331;28;20017;-76
2022/01/17 06:22:45;;;;;;;43.85;14.70;;;;;;;4.48;100.00;103251.53;5072693;28;20082;-72
2022/01/17 06:25:11;;;;;;;39.95;13.82;;;;;;;4.50;100.00;103253.31;5071281;28;20052;-76
2022/01/17 06:27:37;;;;;;;33.65;14.23;;;;;;;4.54;100.00;103257.75;5064206;28;20024;-70
2022/01/17 06:30:04;;;;;;;37.97;13.88;;;;;;;4.51;100.00;103243.69;5073191;28;20096;-72
2022/01/17 06:32:30;;;;;;;33.55;12.18;;;;;;;4.53;100.00;103244.63;5072742;28;20020;-81
2022/01/17 06:34:57;;;;;;;37.63;12.20;;;;;;;4.54;100.00;103241.13;5072715;28;20396;-77
2022/01/17 06:37:23;;;;;;;33.95;11.85;;;;;;;4.54;100.00;103254.22;5072480;28;20444;-82
2022/01/17 06:39:48;;;;;;;36.35;12.07;;;;;;;4.56;100.00;103260.41;5073182;28;20025;-71
2022/01/17 06:42:14;;;;;;;36.75;11.30;;;;;;;4.52;100.00;103259.47;5072876;28;20081;-79
2022/01/17 06:44:39;;;;;;;32.80;10.35;;;;;;;4.52;100.00;103253.34;5072555;28;20046;-83
2022/01/17 06:47:04;;;;;;;25.50;9.05;;;;;;;4.52;100.00;103246.34;5072076;28;20025;-71
2022/01/17 06:49:30;;;;;;;24.95;8.52;;;;;;;4.51;100.00;103256.81;5072251;28;20029;-71
2022/01/17 06:51:55;;;;;;;27.42;7.65;;;;;;;4.52;100.00;103250.72;5072719;28;20107;-82
2022/01/17 06:54:20;;;;;;;25.23;7.90;;;;;;;4.50;100.00;103265.53;5072385;28;20393;-78
2022/01/17 06:56:46;;;;;;;22.25;7.47;;;;;;;4.53;100.00;103273.47;5069830;28;20476;-81
2022/01/17 06:59:12;;;;;;;23.75;8.02;;;;;;;4.49;100.00;103290.00;5052230;28;20074;-79
2022/01/17 07:01:38;;;;;;;24.35;6.60;;;;;;;4.41;100.00;103285.50;5052470;28;20029;-71
2022/01/17 07:04:04;;;;;;;18.77;6.78;;;;;;;4.39;100.00;103308.19;5064348;28;20024;-81
2022/01/17 07:06:29;;;;;;;22.45;5.70;;;;;;;4.40;100.00;103324.81;5071936;28;20107;-78
2022/01/17 07:08:55;;;;;;;22.30;5.07;;;;;;;4.37;100.00;103315.16;5072145;28;20155;-71
2022/01/17 07:11:21;;;;;;;21.95;5.13;;;;;;;4.34;100.00;103308.94;5072329;28;20043;-71
2022/01/17 07:13:46;;;;;;;20.63;5.82;;;;;;;4.29;100.00;103310.59;5072598;28;20043;-78
2022/01/17 07:16:12;;;;;;;18.58;5.55;;;;;;;4.25;100.00;103309.63;5071424;28;20456;-77
2022/01/17 07:18:37;;;;;;;31.55;6.80;;;;;;;4.24;100.00;103306.13;5071153;28;20032;-72
2022/01/17 07:21:02;;;;;;;20.58;5.20;;;;;;;4.20;100.00;103304.28;5072351;28;20388;-72
2022/01/17 07:23:28;;;;;;;18.35;4.70;;;;;;;4.24;100.00;103307.88;5069025;28;20116;-71
2022/01/17 07:25:53;;;;;;;20.27;5.13;;;;;;;4.31;100.00;103303.63;5060985;28;20031;-77
2022/01/17 07:28:18;;;;;;;18.80;4.80;;;;;;;4.39;100.00;103302.94;5084935;28;20023;-71
2022/01/17 07:30:44;;;;;;;21.98;4.60;;;;;;;4.51;100.00;103314.53;5067224;28;20412;-75
2022/01/17 07:33:09;;;;;;;21.50;4.35;;;;;;;4.61;100.00;103320.88;5077613;28;20024;-71
2022/01/17 07:35:36;;;;;;;17.95;4.50;;;;;;;4.71;100.00;103331.56;5072219;28;20036;-77
2022/01/17 07:38:01;;;;;;;24.95;4.93;;;;;;;4.83;100.00;103335.28;5072066;28;20461;-80
2022/01/17 07:40:27;;;;;;;18.13;4.80;;;;;;;4.92;100.00;103340.72;5071308;28;20097;-78
2022/01/17 07:42:53;;;;;;;22.58;5.13;;;;;;;4.98;100.00;103339.97;5071713;28;20024;-79
2022/01/17 07:45:19;;;;;;;16.58;4.05;;;;;;;5.03;100.00;103339.19;5072013;28;20368;-70
2022/01/17 07:50:20;;;;;;;25.10;4.70;;;;;;;5.08;100.00;103334.88;5071420;28;20412;-79
2022/01/17 07:52:47;;;;;;;24.40;5.18;;;;;;;5.11;100.00;103354.22;5071861;28;20070;-71
2022/01/17 07:55:12;;;;;;;24.92;5.97;;;;;;;5.16;100.00;103348.16;5068249;28;20048;-77
2022/01/17 07:57:38;;;;;;;18.48;5.00;;;;;;;5.21;100.00;103362.25;5069923;28;20148;-79
2022/01/17 08:00:10;;;;;;;20.60;4.25;;;;;;;5.25;100.00;103344.81;5072248;28;20036;-76
2022/01/17 08:02:35;;;;;;;21.02;4.50;;;;;;;5.24;100.00;103349.22;5064267;28;20035;-79
2022/01/17 08:05:02;;;;;;;14.75;3.67;;;;;;;5.30;100.00;103352.81;5055975;28;20029;-77
2022/01/17 08:07:27;;;;;;;32.35;4.97;;;;;;;5.35;100.00;103362.53;5061402;28;20029;-78
2022/01/17 08:09:53;;;;;;;16.60;4.30;;;;;;;5.39;100.00;103356.44;5067184;28;20534;-73
2022/01/17 08:12:18;;;;;;;23.02;4.32;;;;;;;5.43;100.00;103351.28;5076392;28;20378;-80
2022/01/17 08:14:43;;;;;;;19.38;4.07;;;;;;;5.47;100.00;103361.84;5074519;28;20025;-79
2022/01/17 08:17:10;;;;;;;22.73;4.60;;;;;;;5.50;100.00;103355.75;5061375;28;20025;-78
2022/01/17 08:19:36;;;;;;;23.92;3.72;;;;;;;5.57;100.00;103361.13;5055715;28;20025;-78
2022/01/17 08:22:04;;;;;;;32.00;4.78;;;;;;;5.57;100.00;103366.38;5060001;28;20408;-80
2022/01/17 08:24:29;;;;;;;18.83;3.55;;;;;;;5.61;100.00;103369.97;5073158;28;20448;-79
2022/01/17 08:26:55;;;;;;;17.90;3.58;;;;;;;5.66;100.00;103370.91;5063270;28;20166;-74
2022/01/17 08:29:22;;;;;;;21.95;4.13;;;;;;;5.71;100.00;103371.88;5065477;28;20055;-79
2022/01/17 08:31:47;;;;;;;29.17;4.55;;;;;;;5.71;100.00;103378.91;5073538;28;20495;-79
2022/01/17 08:34:15;;;;;;;20.58;4.05;;;;;;;5.74;100.00;103374.56;5079021;28;20032;-78
2022/01/17 08:36:40;;;;;;;20.33;3.97;;;;;;;5.77;100.00;103370.22;5071425;28;20537;-74
2022/01/17 08:39:07;;;;;;;22.83;4.18;;;;;;;5.83;100.00;103367.69;5074841;28;20065;-78
2022/01/17 08:41:33;;;;;;;19.17;4.10;;;;;;;5.89;100.00;103352.00;5075384;28;20108;-78
2022/01/17 08:43:58;;;;;;;23.08;4.35;;;;;;;5.94;100.00;103355.59;5072372;28;20137;-77
2022/01/17 08:46:23;;;;;;;15.77;3.95;;;;;;;5.99;100.00;103363.59;5072867;28;20039;-76
2022/01/17 08:48:49;;;;;;;19.70;3.60;;;;;;;6.06;100.00;103357.53;5056193;28;20028;-79
2022/01/17 08:51:14;;;;;;;22.45;5.45;;;;;;;6.04;100.00;103370.69;5055539;28;20033;-79
2022/01/17 08:53:39;;;;;;;24.58;4.07;;;;;;;6.09;100.00;103375.09;5068883;28;20049;-79
2022/01/17 08:56:05;;;;;;;19.40;3.78;;;;;;;6.16;100.00;103369.97;5074333;28;20512;-80
2022/01/17 08:58:31;;;;;;;23.30;3.97;;;;;;;6.23;100.00;103378.84;5074534;28;20040;-78
2022/01/17 09:00:57;;;;;;;18.95;3.88;;;;;;;6.29;100.00;103386.84;5074037;28;20025;-80
2022/01/17 09:03:23;;;;;;;16.52;3.72;;;;;;;6.37;100.00;103390.44;5075249;28;20028;-78
2022/01/17 09:05:50;;;;;;;23.83;4.63;;;;;;;6.35;100.00;103400.06;5070464;28;20043;-79
2022/01/17 09:08:16;;;;;;;20.02;3.80;;;;;;;6.40;100.00;103397.50;5072886;28;20429;-79
2022/01/17 09:10:42;;;;;;;20.17;3.63;;;;;;;6.48;100.00;103403.75;5073033;28;20468;-80
2022/01/17 09:13:07;;;;;;;21.90;3.70;;;;;;;6.54;100.00;103410.84;5054592;28;20040;-81
2022/01/17 09:15:34;;;;;;;20.98;3.50;;;;;;;6.64;100.00;103418.00;5058660;28;20457;-79
2022/01/17 09:17:59;;;;;;;36.08;3.92;;;;;;;6.71;100.00;103413.69;5074627;28;20043;-81
2022/01/17 09:20:25;;;;;;;22.15;3.63;;;;;;;6.70;100.00;103414.56;5054843;28;20508;-77
2022/01/17 09:22:50;;;;;;;23.90;3.88;;;;;;;6.74;100.00;103421.66;5054441;28;20033;-81
2022/01/17 09:25:16;;;;;;;19.75;4.25;;;;;;;6.78;100.00;103434.00;5074854;28;20039;-81
2022/01/17 09:27:44;;;;;;;23.52;2.70;;;;;;;6.87;100.00;103427.97;5069384;28;20158;-78
2022/01/17 09:30:13;;;;;;;22.65;6.00;;;;;;;6.91;100.00;103426.25;5074403;28;20121;-81
2022/01/17 09:32:39;;;;;;;16.58;4.03;;;;;;;6.93;100.00;103435.03;5060333;28;20492;-79
2022/01/17 09:35:06;;;;;;;23.05;3.70;;;;;;;7.01;100.00;103431.63;5074589;28;20032;-81
2022/01/17 09:37:32;;;;;;;18.85;3.08;;;;;;;7.10;99.33;103424.69;5073598;28;20035;-80
2022/01/17 09:39:57;;;;;;;22.30;4.22;;;;;;;7.14;99.55;103432.66;5074137;28;20022;-81
2022/01/17 09:42:23;;;;;;;19.80;3.03;;;;;;;7.16;98.97;103435.31;5072889;28;20395;-78
2022/01/17 09:44:48;;;;;;;24.73;3.55;;;;;;;7.13;98.85;103428.25;5071126;28;20047;-82
2022/01/17 09:47:14;;;;;;;23.98;3.53;;;;;;;7.16;98.57;103443.22;5070615;28;20032;-81
2022/01/17 09:49:54;;;;;;;16.13;3.13;;;;;;;7.24;98.25;103445.94;5071416;28;20472;-81
2022/01/17 09:52:34;;;;;;;18.73;3.75;;;;;;;7.24;98.02;103449.47;5071056;28;20556;-82
2022/01/17 09:55:05;;;;;;;19.05;4.32;;;;;;;7.27;98.29;103456.53;5073345;28;20052;-80
2022/01/17 09:57:34;;;;;;;23.27;3.40;;;;;;;7.29;98.42;103449.50;5074023;28;20515;-79
2022/01/17 09:59:59;;;;;;;23.50;3.45;;;;;;;7.29;97.95;103460.03;5073850;28;20851;-78
2022/01/17 10:02:25;;;;;;;17.65;3.80;;;;;;;7.33;97.70;103453.97;5073528;28;20119;-79
2022/01/17 10:04:51;;;;;;;16.35;2.97;;;;;;;7.34;98.16;103464.50;5073814;28;20051;-80
2022/01/17 10:07:16;;;;;;;14.90;3.00;;;;;;;7.46;98.16;103476.06;5073225;28;20043;-80
2022/01/17 10:09:54;;;;;;;20.83;3.03;;;;;;;7.61;97.61;103472.69;5073639;28;20024;-81
2022/01/17 10:12:19;;;;;;;17.13;3.42;;;;;;;7.65;97.49;103474.50;5073709;28;20021;-80
2022/01/17 10:15:03;;;;;;;21.98;3.40;;;;;;;7.68;96.64;103478.03;5073752;28;20376;-81
2022/01/17 10:17:42;;;;;;;21.05;3.60;;;;;;;7.73;95.94;103467.53;5073052;28;20025;-81
2022/01/17 10:20:09;;;;;;;23.20;3.15;;;;;;;7.79;95.47;103485.19;5072892;28;20036;-81
2022/01/17 10:22:45;;;;;;;17.17;3.00;;;;;;;7.74;95.61;103482.50;5073751;28;20017;-81
2022/01/17 10:25:23;;;;;;;21.65;3.88;;;;;;;7.79;96.32;103491.34;5072607;28;20036;-79
2022/01/17 10:28:14;;;;;;;16.40;2.88;;;;;;;7.77;96.32;103494.84;5073537;28;20495;-76
2022/01/17 10:30:52;;;;;;;16.50;3.00;;;;;;;7.72;96.53;103484.22;5072399;28;20143;-75
2022/01/17 10:36:03;;;;;;;15.07;2.97;;;;;;;7.68;95.99;103499.13;5072779;28;20035;-79
2022/01/17 10:38:28;;;;;;;19.77;3.13;;;;;;;7.82;96.08;103493.13;5072596;28;20034;-80
2022/01/17 10:41:04;;;;;;;25.52;3.97;;;;;;;7.78;96.38;103502.75;5073028;28;20025;-76
2022/01/17 10:43:36;;;;;;;18.05;3.22;;;;;;;7.80;96.07;103487.84;5075299;28;20483;-79
2022/01/17 10:46:03;;;;;;;;;;;;;;;7.77;95.74;103495.69;5073108;28;20024;-80
2022/01/17 10:48:37;;;;;;;15.63;2.65;;;;;;;7.74;95.82;103490.41;5072578;28;20036;-80
2022/01/17 10:51:04;;;;;;;16.73;2.75;;;;;;;7.84;95.92;103486.13;5057403;28;20035;-78
2022/01/17 10:53:29;;;;;;;18.30;3.35;;;;;;;7.89;95.86;103497.59;5053672;28;20049;-79
2022/01/17 10:55:57;;;;;;;20.60;3.40;;;;;;;7.86;95.59;103497.56;5053705;28;20072;-75
2022/01/17 10:58:29;;;;;;;24.70;4.32;;;;;;;7.90;95.94;103509.88;5053354;28;20028;-81
2022/01/17 11:00:57;;;;;;;17.27;3.00;;;;;;;7.83;95.97;103508.97;5066073;28;20108;-76
2022/01/17 11:03:30;;;;;;;18.42;3.47;;;;;;;7.87;95.88;103509.88;5072334;28;20040;-79
2022/01/17 11:05:58;;;;;;;20.90;3.33;;;;;;;7.94;95.06;103509.06;5070523;28;20024;-77
2022/01/17 11:08:27;;;;;;;21.05;3.33;;;;;;;8.03;95.15;103511.78;5071777;28;20055;-79
2022/01/17 11:10:55;;;;;;;18.80;4.05;;;;;;;8.14;94.23;103526.81;5072953;28;20033;-78
2022/01/17 11:13:24;;;;;;;14.82;3.33;;;;;;;8.08;93.99;103532.94;5071993;28;20052;-79
2022/01/17 11:16:01;;;;;;;25.13;3.63;;;;;;;8.06;93.84;103533.78;5071295;28;20019;-78
2022/01/17 11:18:29;;;;;;;19.65;4.03;;;;;;;8.11;93.90;103529.47;5072296;28;20112;-77
2022/01/17 11:20:56;;;;;;;19.48;3.78;;;;;;;8.04;94.05;103534.69;5072362;28;20024;-77
2022/01/17 11:23:22;;;;;;;17.48;3.08;;;;;;;7.95;94.59;103525.78;5075038;28;20060;-76
2022/01/17 11:25:52;;;;;;;27.85;3.67;;;;;;;7.94;94.95;103517.00;5072729;28;20025;-80
2022/01/17 11:28:22;;;;;;;17.38;2.80;;;;;;;8.02;94.38;103520.56;5072586;28;20025;-79
2022/01/17 11:30:48;;;;;;;21.15;3.85;;;;;;;7.98;94.35;103518.78;5072344;28;20048;-79
2022/01/17 11:33:13;;;;;;;17.85;3.00;;;;;;;7.95;94.61;103520.50;5071951;28;20039;-75
2022/01/17 11:35:42;;;;;;;22.15;3.80;;;;;;;7.93;94.85;103527.50;5072470;28;20029;-76
2022/01/17 11:38:11;;;;;;;19.55;2.97;;;;;;;7.99;94.92;103527.56;5075811;28;20031;-81